createdAt,value
2018-02-03T00:03:02.455Z,4.30
2018-02-03T00:08:05.743Z,4.30
2018-02-03T00:13:08.370Z,4.30
2018-02-03T00:18:11.234Z,4.20
2018-02-03T00:23:13.920Z,4.20
2018-02-03T00:28:17.751Z,4.10
2018-02-03T00:33:20.421Z,4.10
2018-02-03T00:38:24.502Z,4.20
2018-02-03T00:43:27.170Z,4.10
2018-02-03T00:48:31.001Z,4.10
2018-02-03T00:53:33.642Z,4.10
2018-02-03T00:58:37.007Z,4.10
2018-02-03T01:03:40.393Z,4.10
2018-02-03T01:08:43.890Z,4.10
2018-02-03T01:13:46.583Z,4.10
2018-02-03T01:18:49.890Z,3.90
2018-02-03T01:23:53.402Z,3.90
2018-02-03T01:28:56.801Z,3.90
2018-02-03T01:34:00.276Z,3.80
2018-02-03T01:39:04.059Z,3.80
2018-02-03T01:44:06.677Z,3.80
2018-02-03T01:49:09.655Z,3.80
2018-02-03T01:54:13.034Z,3.80
2018-02-03T01:59:16.463Z,3.70
2018-02-03T02:04:19.120Z,3.70
2018-02-03T02:09:22.593Z,3.70
2018-02-03T02:14:26.132Z,3.70
2018-02-03T02:19:29.207Z,3.70
2018-02-03T02:24:31.849Z,3.70
2018-02-03T02:29:35.128Z,3.70
2018-02-03T02:34:38.564Z,3.70
2018-02-03T02:39:42.571Z,3.70
2018-02-03T02:44:46.012Z,3.70
2018-02-03T02:49:49.769Z,3.70
2018-02-03T02:54:52.407Z,3.70
2018-02-03T02:59:55.939Z,3.80
2018-02-03T03:04:58.592Z,3.80
2018-02-03T03:10:01.462Z,3.70
2018-02-03T03:15:04.917Z,3.70
2018-02-03T03:20:08.531Z,3.70
2018-02-03T03:25:11.406Z,3.70
2018-02-03T03:30:15.133Z,3.80
2018-02-03T03:35:17.793Z,3.70
2018-02-03T03:40:21.172Z,3.70
2018-02-03T03:45:23.917Z,3.70
2018-02-03T03:50:27.224Z,3.70
2018-02-03T03:55:30.015Z,3.80
2018-02-03T04:00:33.714Z,3.70
2018-02-03T04:05:36.375Z,3.70
2018-02-03T04:10:40.075Z,3.70
2018-02-03T04:15:42.667Z,3.70
2018-02-03T04:20:45.825Z,3.60
2018-02-03T04:25:48.458Z,3.50
2018-02-03T04:30:51.203Z,3.50
2018-02-03T04:35:54.593Z,3.40
2018-02-03T04:40:57.673Z,3.40
2018-02-03T04:46:00.289Z,3.40
2018-02-03T04:51:02.985Z,3.30
2018-02-03T04:56:05.618Z,3.30
2018-02-03T05:01:08.700Z,3.30
2018-02-03T05:06:11.330Z,3.20
2018-02-03T05:11:15.591Z,3.20
2018-02-03T05:16:18.995Z,3.20
2018-02-03T05:21:22.934Z,3.10
2018-02-03T05:26:26.332Z,3.10
2018-02-03T05:31:29.046Z,3.10
2018-02-03T05:36:32.580Z,3.10
2018-02-03T05:41:35.586Z,3.00
2018-02-03T05:46:38.277Z,3.00
2018-02-03T05:51:42.723Z,3.00
2018-02-03T05:56:46.177Z,3.00
2018-02-03T06:01:49.556Z,3.00
2018-02-03T06:06:52.151Z,3.00
2018-02-03T06:11:56.275Z,2.90
2018-02-03T06:16:59.661Z,2.90
2018-02-03T06:22:02.763Z,2.90
2018-02-03T06:27:05.590Z,2.90
2018-02-03T06:32:09.094Z,2.90
2018-02-03T06:37:12.563Z,2.90
2018-02-03T06:42:15.555Z,2.90
2018-02-03T06:47:18.962Z,3.10
2018-02-03T06:52:22.446Z,3.10
2018-02-03T06:57:25.067Z,3.10
2018-02-03T07:02:28.551Z,3.10
2018-02-03T07:07:31.178Z,3.10
2018-02-03T07:12:33.842Z,3.10
2018-02-03T07:17:36.614Z,3.10
2018-02-03T07:22:40.533Z,3.20
2018-02-03T07:27:43.940Z,3.20
2018-02-03T07:32:48.074Z,3.20
2018-02-03T07:37:50.671Z,3.20
2018-02-03T07:42:54.451Z,3.30
2018-02-03T07:47:57.065Z,3.20
2018-02-03T07:53:00.226Z,3.30
2018-02-03T07:58:03.610Z,3.30
2018-02-03T08:03:06.992Z,3.30
2018-02-03T08:08:09.632Z,3.30
2018-02-03T08:13:12.298Z,3.40
2018-02-03T08:18:14.931Z,3.40
2018-02-03T08:23:18.565Z,3.60
2018-02-03T08:28:21.970Z,3.60
2018-02-03T08:33:25.557Z,3.50
2018-02-03T08:38:28.203Z,3.60
2018-02-03T08:43:31.743Z,3.70
2018-02-03T08:48:34.371Z,3.70
2018-02-03T08:53:37.852Z,3.60
2018-02-03T08:58:41.246Z,3.50
2018-02-03T09:03:45.399Z,3.90
2018-02-03T09:08:48.801Z,4.00
2018-02-03T09:13:52.351Z,3.70
2018-02-03T09:18:55.015Z,3.70
2018-02-03T09:23:58.620Z,3.60
2018-02-03T09:29:01.264Z,3.60
2018-02-03T09:34:04.858Z,3.70
2018-02-03T09:39:07.455Z,3.50
2018-02-03T09:44:10.837Z,3.50
2018-02-03T09:49:13.599Z,3.50
2018-02-03T09:54:16.419Z,3.70
2018-02-03T09:59:19.042Z,3.80
2018-02-03T10:04:22.789Z,3.80
2018-02-03T10:09:25.821Z,3.80
2018-02-03T10:14:29.223Z,3.80
2018-02-03T10:19:32.661Z,3.80
2018-02-03T10:24:37.366Z,3.90
2018-02-03T10:29:41.862Z,3.90
2018-02-03T10:34:46.372Z,3.90
2018-02-03T10:39:49.718Z,3.90
2018-02-03T10:44:52.851Z,3.80
2018-02-03T10:49:55.541Z,3.80
2018-02-03T10:54:58.902Z,3.90
2018-02-03T11:00:01.959Z,3.90
2018-02-03T11:05:06.193Z,4.30
2018-02-03T11:10:10.120Z,4.30
2018-02-03T11:15:13.792Z,3.90
2018-02-03T11:20:16.588Z,4.20
2018-02-03T11:25:19.636Z,4.10
2018-02-03T11:30:24.946Z,4.00
2018-02-03T11:35:28.789Z,4.00
2018-02-03T11:40:31.956Z,4.00
2018-02-03T11:45:36.731Z,4.10
2018-02-03T11:50:39.648Z,4.20
2018-02-03T11:55:43.198Z,4.30
2018-02-03T12:00:46.236Z,4.30
2018-02-03T12:05:49.516Z,4.10
2018-02-03T12:10:53.623Z,4.30
2018-02-03T12:15:56.530Z,4.30
2018-02-03T12:20:59.187Z,4.30
2018-02-03T12:26:02.267Z,4.30
2018-02-03T12:31:05.675Z,4.30
2018-02-03T12:36:08.674Z,4.30
2018-02-03T12:41:11.296Z,4.30
2018-02-03T12:46:13.976Z,4.20
2018-02-03T12:51:16.616Z,4.20
2018-02-03T12:56:20.263Z,4.90
2018-02-03T13:01:22.874Z,4.90
2018-02-03T13:06:25.552Z,5.70
2018-02-03T13:11:28.179Z,9.80
2018-02-03T13:16:31.472Z,11.70
2018-02-03T13:21:34.124Z,9.40
2018-02-03T13:26:37.698Z,7.20
2018-02-03T13:31:40.319Z,5.50
2018-02-03T13:36:43.624Z,4.90
2018-02-03T13:41:46.230Z,4.50
2018-02-03T13:46:49.402Z,4.50
2018-02-03T13:51:52.194Z,4.10
2018-02-03T13:56:55.815Z,4.00
2018-02-03T14:01:59.187Z,4.30
2018-02-03T14:07:02.044Z,4.30
2018-02-03T14:12:04.663Z,4.30
2018-02-03T14:17:07.867Z,4.30
2018-02-03T14:22:10.450Z,4.30
2018-02-03T14:27:13.098Z,4.20
2018-02-03T14:32:15.757Z,4.00
2018-02-03T14:37:18.824Z,4.10
2018-02-03T14:42:21.474Z,4.10
2018-02-03T14:47:24.421Z,4.30
2018-02-03T14:52:27.053Z,4.20
2018-02-03T14:57:30.447Z,3.70
2018-02-03T15:02:33.150Z,3.70
2018-02-03T15:07:35.833Z,3.70
2018-02-03T15:12:38.641Z,3.60
2018-02-03T15:17:41.898Z,3.60
2018-02-03T15:22:44.493Z,3.60
2018-02-03T15:27:47.548Z,3.40
2018-02-03T15:32:50.169Z,3.20
2018-02-03T15:37:54.128Z,3.10
2018-02-03T15:42:56.733Z,3.10
2018-02-03T15:47:59.776Z,3.10
2018-02-03T15:53:02.400Z,3.10
2018-02-03T15:58:05.041Z,3.00
2018-02-03T16:03:07.655Z,2.60
2018-02-03T16:08:10.348Z,2.80
2018-02-03T16:13:12.928Z,2.50
2018-02-03T16:18:15.711Z,2.50
2018-02-03T16:23:19.086Z,2.40
2018-02-03T16:28:22.686Z,2.40
2018-02-03T16:33:25.289Z,2.60
2018-02-03T16:38:28.047Z,2.50
2018-02-03T16:43:32.387Z,2.30
2018-02-03T16:48:36.396Z,2.20
2018-02-03T16:53:39.070Z,2.10
2018-02-03T16:58:41.752Z,2.30
2018-02-03T17:03:44.343Z,2.20
2018-02-03T17:08:47.393Z,2.30
2018-02-03T17:13:51.091Z,2.20
2018-02-03T17:18:55.461Z,2.30
2018-02-03T17:23:58.314Z,2.50
2018-02-03T17:29:03.045Z,2.60
2018-02-03T17:34:06.690Z,2.50
2018-02-03T17:39:15.928Z,2.50
2018-02-03T17:44:19.166Z,2.40
2018-02-03T17:49:23.359Z,2.40
2018-02-03T17:54:26.221Z,2.50
2018-02-03T17:59:30.630Z,2.40
2018-02-03T18:04:33.539Z,2.40
2018-02-03T18:09:37.004Z,2.30
2018-02-03T18:14:40.053Z,2.30
2018-02-03T18:19:43.485Z,2.20
2018-02-03T18:24:46.370Z,2.30
2018-02-03T18:29:51.907Z,2.40
2018-02-03T18:34:56.693Z,2.80
2018-02-03T18:40:00.249Z,2.80
2018-02-03T18:45:02.979Z,2.40
2018-02-03T18:50:07.056Z,2.30
2018-02-03T18:55:09.952Z,2.20
2018-02-03T19:00:13.582Z,2.20
2018-02-03T19:05:16.509Z,2.20
2018-02-03T19:10:19.837Z,2.20
2018-02-03T19:15:23.064Z,2.10
2018-02-03T19:20:27.680Z,2.20
2018-02-03T19:25:30.584Z,2.10
2018-02-03T19:30:34.591Z,2.10
2018-02-03T19:35:38.110Z,1.90
2018-02-03T19:40:41.317Z,1.80
2018-02-03T19:45:44.720Z,1.80
2018-02-03T19:50:49.074Z,1.70
2018-02-03T19:55:52.462Z,1.60
2018-02-03T20:00:56.673Z,1.70
2018-02-03T20:05:59.299Z,1.70
2018-02-03T20:11:04.316Z,1.40
2018-02-03T20:16:06.984Z,1.40
2018-02-03T20:21:12.165Z,1.40
2018-02-03T20:26:15.805Z,1.40
2018-02-03T20:31:19.204Z,1.40
2018-02-03T20:36:22.187Z,1.50
2018-02-03T20:41:26.422Z,1.20
2018-02-03T20:46:29.328Z,1.20
2018-02-03T20:51:32.940Z,1.00
2018-02-03T20:56:36.415Z,1.40
2018-02-03T21:01:39.506Z,1.40
2018-02-03T21:06:42.284Z,1.50
2018-02-03T21:11:46.247Z,1.60
2018-02-03T21:16:50.356Z,1.70
2018-02-03T21:21:53.783Z,1.70
2018-02-03T21:26:56.426Z,1.60
2018-02-03T21:32:00.809Z,1.60
2018-02-03T21:37:03.450Z,1.60
2018-02-03T21:42:07.065Z,1.40
2018-02-03T21:47:09.913Z,1.20
2018-02-03T21:52:14.365Z,1.20
2018-02-03T21:57:17.374Z,1.20
2018-02-03T22:02:20.686Z,1.30
2018-02-03T22:07:23.356Z,1.40
2018-02-03T22:12:27.016Z,1.20
2018-02-03T22:17:29.671Z,1.10
2018-02-03T22:22:32.740Z,1.10
2018-02-03T22:27:35.362Z,1.10
2018-02-03T22:32:38.029Z,1.00
2018-02-03T22:37:40.723Z,1.00
2018-02-03T22:42:43.817Z,0.80
2018-02-03T22:47:47.677Z,0.90
2018-02-03T22:52:50.864Z,0.90
2018-02-03T22:57:54.658Z,0.80
2018-02-03T23:02:59.520Z,0.80
2018-02-03T23:08:02.153Z,0.80
2018-02-03T23:13:04.942Z,0.80
2018-02-03T23:18:07.618Z,0.80
2018-02-03T23:23:10.246Z,0.90
2018-02-03T23:28:12.937Z,0.90
2018-02-03T23:33:16.044Z,1.00
2018-02-03T23:38:19.454Z,0.90
2018-02-03T23:43:23.338Z,1.00
2018-02-03T23:48:25.993Z,0.90
2018-02-03T23:53:28.651Z,0.90
2018-02-03T23:58:31.330Z,0.80
